sensor_id;sensor_type;location;lat;lon;timestamp;temperature;humidity
16437;DHT22;8328;52.206;21.006;2023-03-17T00:01:01;2.50;99.90
16437;DHT22;8328;52.206;21.006;2023-03-17T00:05:56;2.40;99.90
16437;DHT22;8328;52.206;21.006;2023-03-17T00:08:28;2.40;99.90
16437;DHT22;8328;52.206;21.006;2023-03-17T00:13:21;2.30;99.90
16437;DHT22;8328;52.206;21.006;2023-03-17T00:15:53;2.30;99.90
16437;DHT22;8328;52.206;21.006;2023-03-17T00:18:19;2.20;99.90
16437;DHT22;8328;52.206;21.006;2023-03-17T00:20:46;2.30;99.90
16437;DHT22;8328;52.206;21.006;2023-03-17T00:23:16;2.30;99.90
16437;DHT22;8328;52.206;21.006;2023-03-17T00:25:43;2.30;99.90
16437;DHT22;8328;52.206;21.006;2023-03-17T00:28:28;2.30;99.90
16437;DHT22;8328;52.206;21.006;2023-03-17T00:31:17;2.30;99.90
16437;DHT22;8328;52.206;21.006;2023-03-17T00:33:46;2.30;99.90
16437;DHT22;8328;52.206;21.006;2023-03-17T00:36:31;2.10;99.90
16437;DHT22;8328;52.206;21.006;2023-03-17T00:38:59;1.40;99.90
16437;DHT22;8328;52.206;21.006;2023-03-17T00:41:25;2.00;99.90
16437;DHT22;8328;52.206;21.006;2023-03-17T00:43:52;2.10;99.90
16437;DHT22;8328;52.206;21.006;2023-03-17T00:46:46;2.00;99.90
16437;DHT22;8328;52.206;21.006;2023-03-17T00:49:19;2.00;99.90
16437;DHT22;8328;52.206;21.006;2023-03-17T00:51:47;2.10;99.90
16437;DHT22;8328;52.206;21.006;2023-03-17T00:54:17;2.10;99.90
16437;DHT22;8328;52.206;21.006;2023-03-17T00:59:38;2.00;99.90
16437;DHT22;8328;52.206;21.006;2023-03-17T01:02:05;2.00;99.90
16437;DHT22;8328;52.206;21.006;2023-03-17T01:09:27;1.00;99.90
16437;DHT22;8328;52.206;21.006;2023-03-17T01:14:22;2.00;99.90
16437;DHT22;8328;52.206;21.006;2023-03-17T01:16:52;2.00;99.90
16437;DHT22;8328;52.206;21.006;2023-03-17T01:53:52;1.70;99.90
16437;DHT22;8328;52.206;21.006;2023-03-17T02:03:06;1.60;99.90
16437;DHT22;8328;52.206;21.006;2023-03-17T02:16:28;1.60;99.90
16437;DHT22;8328;52.206;21.006;2023-03-17T02:22:49;1.50;99.90
16437;DHT22;8328;52.206;21.006;2023-03-17T02:31:58;1.50;99.90
16437;DHT22;8328;52.206;21.006;2023-03-17T03:02:21;1.30;99.90
16437;DHT22;8328;52.206;21.006;2023-03-17T05:22:58;1.00;99.90
16437;DHT22;8328;52.206;21.006;2023-03-17T05:51:22;2.00;99.90
16437;DHT22;8328;52.206;21.006;2023-03-17T05:54:07;2.40;99.90
16437;DHT22;8328;52.206;21.006;2023-03-17T05:59:00;2.50;99.90
16437;DHT22;8328;52.206;21.006;2023-03-17T06:01:27;2.70;99.90
16437;DHT22;8328;52.206;21.006;2023-03-17T06:03:53;2.90;99.90
16437;DHT22;8328;52.206;21.006;2023-03-17T06:06:21;3.10;99.90
16437;DHT22;8328;52.206;21.006;2023-03-17T06:08:47;3.30;99.90
16437;DHT22;8328;52.206;21.006;2023-03-17T06:11:16;3.40;99.90
16437;DHT22;8328;52.206;21.006;2023-03-17T06:13:48;2.60;99.90
16437;DHT22;8328;52.206;21.006;2023-03-17T06:16:14;2.80;99.90
16437;DHT22;8328;52.206;21.006;2023-03-17T06:18:40;4.00;99.90
16437;DHT22;8328;52.206;21.006;2023-03-17T06:21:06;4.20;99.90
16437;DHT22;8328;52.206;21.006;2023-03-17T06:23:32;5.00;99.90
16437;DHT22;8328;52.206;21.006;2023-03-17T06:25:58;5.40;99.90
16437;DHT22;8328;52.206;21.006;2023-03-17T06:28:24;5.40;99.90
16437;DHT22;8328;52.206;21.006;2023-03-17T06:30:50;5.40;99.90
16437;DHT22;8328;52.206;21.006;2023-03-17T06:33:16;5.30;99.90
16437;DHT22;8328;52.206;21.006;2023-03-17T06:35:43;5.40;99.90
16437;DHT22;8328;52.206;21.006;2023-03-17T06:38:09;5.40;99.90
16437;DHT22;8328;52.206;21.006;2023-03-17T06:43:01;5.70;99.90
16437;DHT22;8328;52.206;21.006;2023-03-17T06:45:28;6.50;99.90
16437;DHT22;8328;52.206;21.006;2023-03-17T06:47:53;6.70;99.90
16437;DHT22;8328;52.206;21.006;2023-03-17T06:50:20;6.60;99.90
16437;DHT22;8328;52.206;21.006;2023-03-17T06:52:46;6.00;99.90
16437;DHT22;8328;52.206;21.006;2023-03-17T06:55:12;5.80;99.90
16437;DHT22;8328;52.206;21.006;2023-03-17T06:57:39;5.80;99.90
16437;DHT22;8328;52.206;21.006;2023-03-17T07:00:06;5.80;99.90
16437;DHT22;8328;52.206;21.006;2023-03-17T07:02:39;6.30;99.90
16437;DHT22;8328;52.206;21.006;2023-03-17T07:05:05;6.60;99.90
16437;DHT22;8328;52.206;21.006;2023-03-17T07:07:31;6.30;99.90
16437;DHT22;8328;52.206;21.006;2023-03-17T07:09:57;5.80;99.90
16437;DHT22;8328;52.206;21.006;2023-03-17T07:12:26;5.50;99.90
16437;DHT22;8328;52.206;21.006;2023-03-17T07:15:02;5.50;99.90
16437;DHT22;8328;52.206;21.006;2023-03-17T07:17:28;5.50;99.90
16437;DHT22;8328;52.206;21.006;2023-03-17T07:19:54;5.70;99.90
16437;DHT22;8328;52.206;21.006;2023-03-17T07:22:23;6.10;99.90
16437;DHT22;8328;52.206;21.006;2023-03-17T07:24:49;6.60;99.90
16437;DHT22;8328;52.206;21.006;2023-03-17T07:27:16;6.80;99.90
16437;DHT22;8328;52.206;21.006;2023-03-17T07:29:42;6.90;99.90
16437;DHT22;8328;52.206;21.006;2023-03-17T07:32:09;7.10;99.90
16437;DHT22;8328;52.206;21.006;2023-03-17T07:34:35;7.20;99.90
16437;DHT22;8328;52.206;21.006;2023-03-17T07:37:02;7.20;99.90
16437;DHT22;8328;52.206;21.006;2023-03-17T07:39:29;7.20;99.90
16437;DHT22;8328;52.206;21.006;2023-03-17T07:41:55;7.30;99.90
16437;DHT22;8328;52.206;21.006;2023-03-17T07:44:22;7.40;99.90
16437;DHT22;8328;52.206;21.006;2023-03-17T07:46:49;6.90;99.90
16437;DHT22;8328;52.206;21.006;2023-03-17T07:49:15;7.60;99.90
16437;DHT22;8328;52.206;21.006;2023-03-17T07:51:40;7.70;99.90
16437;DHT22;8328;52.206;21.006;2023-03-17T07:54:12;7.20;99.90
16437;DHT22;8328;52.206;21.006;2023-03-17T07:56:38;7.90;99.90
16437;DHT22;8328;52.206;21.006;2023-03-17T07:59:05;7.90;99.90
16437;DHT22;8328;52.206;21.006;2023-03-17T08:01:33;8.00;99.90
16437;DHT22;8328;52.206;21.006;2023-03-17T08:04:00;8.00;99.90
16437;DHT22;8328;52.206;21.006;2023-03-17T08:06:26;7.90;99.90
16437;DHT22;8328;52.206;21.006;2023-03-17T08:08:53;8.10;99.90
16437;DHT22;8328;52.206;21.006;2023-03-17T08:11:19;8.10;99.90
16437;DHT22;8328;52.206;21.006;2023-03-17T08:13:46;8.10;99.90
16437;DHT22;8328;52.206;21.006;2023-03-17T08:16:15;8.20;99.90
16437;DHT22;8328;52.206;21.006;2023-03-17T08:18:41;8.40;99.90
16437;DHT22;8328;52.206;21.006;2023-03-17T08:21:08;8.50;99.90
16437;DHT22;8328;52.206;21.006;2023-03-17T08:23:34;8.70;99.90
16437;DHT22;8328;52.206;21.006;2023-03-17T08:26:01;9.00;99.90
16437;DHT22;8328;52.206;21.006;2023-03-17T08:28:28;9.30;99.90
16437;DHT22;8328;52.206;21.006;2023-03-17T08:31:04;9.70;99.90
16437;DHT22;8328;52.206;21.006;2023-03-17T08:33:30;10.10;99.90
16437;DHT22;8328;52.206;21.006;2023-03-17T08:35:56;9.30;99.90
16437;DHT22;8328;52.206;21.006;2023-03-17T08:38:22;10.50;99.90
16437;DHT22;8328;52.206;21.006;2023-03-17T08:40:49;11.00;99.90
16437;DHT22;8328;52.206;21.006;2023-03-17T08:43:15;11.10;99.90
16437;DHT22;8328;52.206;21.006;2023-03-17T08:45:44;11.00;99.90
16437;DHT22;8328;52.206;21.006;2023-03-17T08:48:13;10.70;99.90
16437;DHT22;8328;52.206;21.006;2023-03-17T08:50:39;10.50;99.90
16437;DHT22;8328;52.206;21.006;2023-03-17T08:53:05;10.30;99.90
16437;DHT22;8328;52.206;21.006;2023-03-17T08:55:32;10.00;99.90
16437;DHT22;8328;52.206;21.006;2023-03-17T08:57:58;9.90;99.90
16437;DHT22;8328;52.206;21.006;2023-03-17T09:00:24;9.60;99.90
16437;DHT22;8328;52.206;21.006;2023-03-17T09:02:51;9.40;99.90
16437;DHT22;8328;52.206;21.006;2023-03-17T09:05:17;9.40;99.90
16437;DHT22;8328;52.206;21.006;2023-03-17T09:07:43;9.30;99.90
16437;DHT22;8328;52.206;21.006;2023-03-17T09:10:09;9.20;99.90
16437;DHT22;8328;52.206;21.006;2023-03-17T09:12:36;8.20;99.90
16437;DHT22;8328;52.206;21.006;2023-03-17T09:15:03;9.20;99.90
16437;DHT22;8328;52.206;21.006;2023-03-17T09:17:30;9.20;99.90
16437;DHT22;8328;52.206;21.006;2023-03-17T09:19:56;9.20;98.20
16437;DHT22;8328;52.206;21.006;2023-03-17T09:22:23;9.20;97.90
16437;DHT22;8328;52.206;21.006;2023-03-17T09:24:49;9.20;97.30
16437;DHT22;8328;52.206;21.006;2023-03-17T09:27:15;9.30;97.00
16437;DHT22;8328;52.206;21.006;2023-03-17T09:29:41;9.40;96.60
16437;DHT22;8328;52.206;21.006;2023-03-17T09:32:07;9.50;96.10
16437;DHT22;8328;52.206;21.006;2023-03-17T09:34:33;9.50;95.70
16437;DHT22;8328;52.206;21.006;2023-03-17T09:37:00;9.50;94.60
16437;DHT22;8328;52.206;21.006;2023-03-17T09:39:26;9.50;95.10
16437;DHT22;8328;52.206;21.006;2023-03-17T09:42:00;9.50;94.30
16437;DHT22;8328;52.206;21.006;2023-03-17T09:49:59;9.60;93.10
16437;DHT22;8328;52.206;21.006;2023-03-17T09:52:30;9.70;92.60
16437;DHT22;8328;52.206;21.006;2023-03-17T09:54:56;9.70;92.20
16437;DHT22;8328;52.206;21.006;2023-03-17T09:57:32;9.80;91.50
16437;DHT22;8328;52.206;21.006;2023-03-17T10:00:16;9.90;90.90
16437;DHT22;8328;52.206;21.006;2023-03-17T10:02:43;9.90;90.60
16437;DHT22;8328;52.206;21.006;2023-03-17T10:11:25;10.20;86.10
16437;DHT22;8328;52.206;21.006;2023-03-17T10:14:35;10.30;86.20
16437;DHT22;8328;52.206;21.006;2023-03-17T10:20:03;10.50;85.20
16437;DHT22;8328;52.206;21.006;2023-03-17T10:22:38;10.70;82.10
16437;DHT22;8328;52.206;21.006;2023-03-17T10:25:19;10.90;79.90
16437;DHT22;8328;52.206;21.006;2023-03-17T10:28:09;11.00;80.40
16437;DHT22;8328;52.206;21.006;2023-03-17T10:30:38;11.20;80.40
16437;DHT22;8328;52.206;21.006;2023-03-17T10:33:05;11.20;78.40
16437;DHT22;8328;52.206;21.006;2023-03-17T10:35:35;11.20;79.10
16437;DHT22;8328;52.206;21.006;2023-03-17T10:38:19;11.40;78.70
16437;DHT22;8328;52.206;21.006;2023-03-17T10:40:56;11.60;77.40
16437;DHT22;8328;52.206;21.006;2023-03-17T10:43:28;11.80;76.20
16437;DHT22;8328;52.206;21.006;2023-03-17T10:46:05;11.90;74.30
16437;DHT22;8328;52.206;21.006;2023-03-17T10:48:37;12.10;73.60
16437;DHT22;8328;52.206;21.006;2023-03-17T10:51:09;12.30;72.40
16437;DHT22;8328;52.206;21.006;2023-03-17T10:53:38;12.50;71.30
16437;DHT22;8328;52.206;21.006;2023-03-17T10:56:21;12.60;70.50
16437;DHT22;8328;52.206;21.006;2023-03-17T10:58:49;12.80;70.60
16437;DHT22;8328;52.206;21.006;2023-03-17T11:03:46;13.50;64.80
16437;DHT22;8328;52.206;21.006;2023-03-17T11:06:14;13.80;64.70
16437;DHT22;8328;52.206;21.006;2023-03-17T11:08:44;14.30;62.30
16437;DHT22;8328;52.206;21.006;2023-03-17T11:11:26;14.60;60.00
16437;DHT22;8328;52.206;21.006;2023-03-17T11:14:25;15.00;57.50
16437;DHT22;8328;52.206;21.006;2023-03-17T11:16:57;15.00;55.60
16437;DHT22;8328;52.206;21.006;2023-03-17T11:22:23;14.90;54.00
16437;DHT22;8328;52.206;21.006;2023-03-17T11:30:33;15.50;51.60
16437;DHT22;8328;52.206;21.006;2023-03-17T11:35:47;15.60;50.10
16437;DHT22;8328;52.206;21.006;2023-03-17T11:38:27;15.90;49.30
16437;DHT22;8328;52.206;21.006;2023-03-17T11:41:13;15.90;48.30
16437;DHT22;8328;52.206;21.006;2023-03-17T11:43:43;16.10;47.60
16437;DHT22;8328;52.206;21.006;2023-03-17T11:56:58;17.20;43.90
16437;DHT22;8328;52.206;21.006;2023-03-17T11:59:36;17.50;43.40
16437;DHT22;8328;52.206;21.006;2023-03-17T12:02:18;17.60;42.30
16437;DHT22;8328;52.206;21.006;2023-03-17T12:07:57;17.50;41.60
16437;DHT22;8328;52.206;21.006;2023-03-17T12:10:24;17.60;39.60
16437;DHT22;8328;52.206;21.006;2023-03-17T12:13:12;17.50;40.00
16437;DHT22;8328;52.206;21.006;2023-03-17T12:15:54;17.60;39.90
16437;DHT22;8328;52.206;21.006;2023-03-17T12:18:39;17.70;39.00
16437;DHT22;8328;52.206;21.006;2023-03-17T12:27:26;17.60;37.80
16437;DHT22;8328;52.206;21.006;2023-03-17T12:30:06;17.00;39.00
16437;DHT22;8328;52.206;21.006;2023-03-17T12:32:43;16.60;39.00
16437;DHT22;8328;52.206;21.006;2023-03-17T12:37:51;16.60;39.90
16437;DHT22;8328;52.206;21.006;2023-03-17T12:40:33;16.60;39.70
16437;DHT22;8328;52.206;21.006;2023-03-17T12:43:28;16.40;39.60
16437;DHT22;8328;52.206;21.006;2023-03-17T12:54:31;16.00;39.80
16437;DHT22;8328;52.206;21.006;2023-03-17T12:57:12;15.90;40.30
16437;DHT22;8328;52.206;21.006;2023-03-17T12:59:41;15.80;40.40
16437;DHT22;8328;52.206;21.006;2023-03-17T13:02:44;15.80;39.50
16437;DHT22;8328;52.206;21.006;2023-03-17T13:05:14;15.70;39.50
16437;DHT22;8328;52.206;21.006;2023-03-17T13:07:59;15.40;39.20
16437;DHT22;8328;52.206;21.006;2023-03-17T13:23:41;14.70;40.00
16437;DHT22;8328;52.206;21.006;2023-03-17T13:26:11;14.60;40.10
16437;DHT22;8328;52.206;21.006;2023-03-17T13:31:14;14.30;39.70
16437;DHT22;8328;52.206;21.006;2023-03-17T13:34:01;14.20;40.00
16437;DHT22;8328;52.206;21.006;2023-03-17T13:36:38;14.10;40.60
16437;DHT22;8328;52.206;21.006;2023-03-17T13:49:02;13.80;40.80
16437;DHT22;8328;52.206;21.006;2023-03-17T13:51:32;13.70;41.30
16437;DHT22;8328;52.206;21.006;2023-03-17T13:56:53;13.60;40.90
16437;DHT22;8328;52.206;21.006;2023-03-17T14:02:10;13.60;41.10
16437;DHT22;8328;52.206;21.006;2023-03-17T14:07:20;13.50;41.30
16437;DHT22;8328;52.206;21.006;2023-03-17T14:09:50;13.40;41.60
16437;DHT22;8328;52.206;21.006;2023-03-17T14:12:55;13.30;41.30
16437;DHT22;8328;52.206;21.006;2023-03-17T14:15:39;13.30;41.10
16437;DHT22;8328;52.206;21.006;2023-03-17T14:18:27;13.20;41.30
16437;DHT22;8328;52.206;21.006;2023-03-17T14:20:57;13.40;41.70
16437;DHT22;8328;52.206;21.006;2023-03-17T14:23:23;13.40;41.10
16437;DHT22;8328;52.206;21.006;2023-03-17T14:25:53;13.40;40.80
16437;DHT22;8328;52.206;21.006;2023-03-17T14:28:26;13.50;41.10
16437;DHT22;8328;52.206;21.006;2023-03-17T14:31:01;13.50;40.90
16437;DHT22;8328;52.206;21.006;2023-03-17T14:33:45;13.50;40.60
16437;DHT22;8328;52.206;21.006;2023-03-17T14:36:12;13.40;40.80
16437;DHT22;8328;52.206;21.006;2023-03-17T14:38:44;13.40;40.60
16437;DHT22;8328;52.206;21.006;2023-03-17T14:41:22;13.30;40.80
16437;DHT22;8328;52.206;21.006;2023-03-17T14:43:49;13.20;40.80
16437;DHT22;8328;52.206;21.006;2023-03-17T14:46:26;13.10;40.90
16437;DHT22;8328;52.206;21.006;2023-03-17T14:49:01;13.10;40.90
16437;DHT22;8328;52.206;21.006;2023-03-17T14:51:33;12.90;40.80
16437;DHT22;8328;52.206;21.006;2023-03-17T14:54:02;12.70;40.80
16437;DHT22;8328;52.206;21.006;2023-03-17T14:56:36;12.70;41.10
16437;DHT22;8328;52.206;21.006;2023-03-17T14:59:15;12.60;41.70
16437;DHT22;8328;52.206;21.006;2023-03-17T15:01:44;12.50;42.10
16437;DHT22;8328;52.206;21.006;2023-03-17T15:04:24;12.40;42.30
16437;DHT22;8328;52.206;21.006;2023-03-17T15:06:55;12.20;41.90
16437;DHT22;8328;52.206;21.006;2023-03-17T15:09:29;12.10;42.30
16437;DHT22;8328;52.206;21.006;2023-03-17T15:12:22;11.90;42.30
16437;DHT22;8328;52.206;21.006;2023-03-17T15:14:53;11.90;42.60
16437;DHT22;8328;52.206;21.006;2023-03-17T15:17:40;11.90;43.00
16437;DHT22;8328;52.206;21.006;2023-03-17T15:20:14;11.90;42.80
16437;DHT22;8328;52.206;21.006;2023-03-17T15:22:43;11.70;43.10
16437;DHT22;8328;52.206;21.006;2023-03-17T15:27:59;11.60;43.10
16437;DHT22;8328;52.206;21.006;2023-03-17T15:30:25;11.40;43.60
16437;DHT22;8328;52.206;21.006;2023-03-17T15:32:59;11.30;43.80
16437;DHT22;8328;52.206;21.006;2023-03-17T15:35:25;11.20;44.00
16437;DHT22;8328;52.206;21.006;2023-03-17T15:37:52;10.90;44.10
16437;DHT22;8328;52.206;21.006;2023-03-17T15:40:18;10.70;44.50
16437;DHT22;8328;52.206;21.006;2023-03-17T15:42:44;10.60;44.50
16437;DHT22;8328;52.206;21.006;2023-03-17T15:45:17;10.50;44.80
16437;DHT22;8328;52.206;21.006;2023-03-17T15:47:44;10.30;45.40
16437;DHT22;8328;52.206;21.006;2023-03-17T15:50:29;10.20;45.60
16437;DHT22;8328;52.206;21.006;2023-03-17T15:52:55;10.00;45.80
16437;DHT22;8328;52.206;21.006;2023-03-17T15:55:27;9.90;46.90
16437;DHT22;8328;52.206;21.006;2023-03-17T15:57:57;9.80;47.20
16437;DHT22;8328;52.206;21.006;2023-03-17T16:00:25;9.70;47.50
16437;DHT22;8328;52.206;21.006;2023-03-17T16:02:54;9.60;47.70
16437;DHT22;8328;52.206;21.006;2023-03-17T16:05:34;9.60;48.10
16437;DHT22;8328;52.206;21.006;2023-03-17T16:08:00;9.60;48.40
16437;DHT22;8328;52.206;21.006;2023-03-17T16:10:31;9.50;48.70
16437;DHT22;8328;52.206;21.006;2023-03-17T16:12:57;9.40;48.80
16437;DHT22;8328;52.206;21.006;2023-03-17T16:15:28;9.30;49.10
16437;DHT22;8328;52.206;21.006;2023-03-17T16:18:04;9.30;49.50
16437;DHT22;8328;52.206;21.006;2023-03-17T16:20:42;9.20;49.90
16437;DHT22;8328;52.206;21.006;2023-03-17T16:25:39;8.90;50.80
16437;DHT22;8328;52.206;21.006;2023-03-17T16:28:32;8.90;50.80
16437;DHT22;8328;52.206;21.006;2023-03-17T16:30:59;8.70;51.00
16437;DHT22;8328;52.206;21.006;2023-03-17T16:33:38;8.60;51.50
16437;DHT22;8328;52.206;21.006;2023-03-17T16:36:04;8.50;51.80
16437;DHT22;8328;52.206;21.006;2023-03-17T16:38:31;8.40;52.00
16437;DHT22;8328;52.206;21.006;2023-03-17T16:40:59;8.30;52.40
16437;DHT22;8328;52.206;21.006;2023-03-17T16:43:30;8.20;52.60
16437;DHT22;8328;52.206;21.006;2023-03-17T16:45:57;8.10;52.80
16437;DHT22;8328;52.206;21.006;2023-03-17T16:48:24;8.00;53.10
16437;DHT22;8328;52.206;21.006;2023-03-17T16:50:50;7.90;53.20
16437;DHT22;8328;52.206;21.006;2023-03-17T16:53:16;7.90;53.70
16437;DHT22;8328;52.206;21.006;2023-03-17T16:55:43;7.80;54.00
16437;DHT22;8328;52.206;21.006;2023-03-17T16:58:23;7.80;54.00
16437;DHT22;8328;52.206;21.006;2023-03-17T17:00:51;7.70;54.30
16437;DHT22;8328;52.206;21.006;2023-03-17T17:03:18;7.70;54.90
16437;DHT22;8328;52.206;21.006;2023-03-17T17:05:44;7.60;54.80
16437;DHT22;8328;52.206;21.006;2023-03-17T17:08:10;7.60;55.00
16437;DHT22;8328;52.206;21.006;2023-03-17T17:10:37;7.50;55.20
16437;DHT22;8328;52.206;21.006;2023-03-17T17:13:07;7.50;55.40
16437;DHT22;8328;52.206;21.006;2023-03-17T17:15:34;6.60;55.10
16437;DHT22;8328;52.206;21.006;2023-03-17T17:18:15;7.50;56.10
16437;DHT22;8328;52.206;21.006;2023-03-17T17:20:42;7.40;56.50
16437;DHT22;8328;52.206;21.006;2023-03-17T17:23:14;7.30;57.10
16437;DHT22;8328;52.206;21.006;2023-03-17T17:25:40;7.30;57.60
16437;DHT22;8328;52.206;21.006;2023-03-17T17:28:07;7.20;58.00
16437;DHT22;8328;52.206;21.006;2023-03-17T17:30:35;7.20;58.50
16437;DHT22;8328;52.206;21.006;2023-03-17T17:33:01;7.10;58.70
16437;DHT22;8328;52.206;21.006;2023-03-17T17:35:31;7.10;59.00
16437;DHT22;8328;52.206;21.006;2023-03-17T17:38:01;4.90;57.90
16437;DHT22;8328;52.206;21.006;2023-03-17T17:40:28;7.00;59.80
16437;DHT22;8328;52.206;21.006;2023-03-17T17:42:55;7.00;60.30
16437;DHT22;8328;52.206;21.006;2023-03-17T17:45:22;7.00;60.90
16437;DHT22;8328;52.206;21.006;2023-03-17T17:50:28;6.90;60.60
16437;DHT22;8328;52.206;21.006;2023-03-17T17:52:54;6.80;61.60
16437;DHT22;8328;52.206;21.006;2023-03-17T17:55:32;6.80;62.20
16437;DHT22;8328;52.206;21.006;2023-03-17T17:57:58;6.80;62.40
16437;DHT22;8328;52.206;21.006;2023-03-17T18:00:24;6.50;62.20
16437;DHT22;8328;52.206;21.006;2023-03-17T18:02:50;6.80;63.00
16437;DHT22;8328;52.206;21.006;2023-03-17T18:05:19;6.80;62.80
16437;DHT22;8328;52.206;21.006;2023-03-17T18:07:45;6.70;63.10
16437;DHT22;8328;52.206;21.006;2023-03-17T18:10:20;6.70;63.60
16437;DHT22;8328;52.206;21.006;2023-03-17T18:12:47;6.70;63.90
16437;DHT22;8328;52.206;21.006;2023-03-17T18:15:13;6.60;64.10
16437;DHT22;8328;52.206;21.006;2023-03-17T18:17:39;6.60;64.50
16437;DHT22;8328;52.206;21.006;2023-03-17T18:20:06;6.60;65.10
16437;DHT22;8328;52.206;21.006;2023-03-17T18:22:33;6.30;64.70
16437;DHT22;8328;52.206;21.006;2023-03-17T18:24:59;6.20;65.20
16437;DHT22;8328;52.206;21.006;2023-03-17T18:27:25;6.50;66.10
16437;DHT22;8328;52.206;21.006;2023-03-17T18:29:51;6.50;66.30
16437;DHT22;8328;52.206;21.006;2023-03-17T18:32:18;6.50;66.10
16437;DHT22;8328;52.206;21.006;2023-03-17T18:34:45;6.50;66.50
16437;DHT22;8328;52.206;21.006;2023-03-17T18:37:14;6.50;67.20
16437;DHT22;8328;52.206;21.006;2023-03-17T18:39:40;3.60;64.30
16437;DHT22;8328;52.206;21.006;2023-03-17T18:42:07;6.40;67.80
16437;DHT22;8328;52.206;21.006;2023-03-17T18:44:33;6.40;67.80
16437;DHT22;8328;52.206;21.006;2023-03-17T18:47:00;6.30;68.10
16437;DHT22;8328;52.206;21.006;2023-03-17T18:49:26;6.40;68.50
16437;DHT22;8328;52.206;21.006;2023-03-17T18:51:53;6.20;68.90
16437;DHT22;8328;52.206;21.006;2023-03-17T18:54:20;6.20;69.20
16437;DHT22;8328;52.206;21.006;2023-03-17T18:56:46;5.60;68.80
16437;DHT22;8328;52.206;21.006;2023-03-17T18:59:12;6.20;69.80
16437;DHT22;8328;52.206;21.006;2023-03-17T19:01:38;6.20;70.00
16437;DHT22;8328;52.206;21.006;2023-03-17T19:04:04;6.20;70.20
16437;DHT22;8328;52.206;21.006;2023-03-17T19:06:30;6.00;70.40
16437;DHT22;8328;52.206;21.006;2023-03-17T19:08:56;6.10;70.90
16437;DHT22;8328;52.206;21.006;2023-03-17T19:11:22;6.10;71.10
16437;DHT22;8328;52.206;21.006;2023-03-17T19:13:50;6.10;71.50
16437;DHT22;8328;52.206;21.006;2023-03-17T19:16:17;6.00;71.60
16437;DHT22;8328;52.206;21.006;2023-03-17T19:18:44;6.00;72.20
16437;DHT22;8328;52.206;21.006;2023-03-17T19:21:11;6.00;72.40
16437;DHT22;8328;52.206;21.006;2023-03-17T19:23:38;6.00;72.40
16437;DHT22;8328;52.206;21.006;2023-03-17T19:26:05;5.90;72.70
16437;DHT22;8328;52.206;21.006;2023-03-17T19:28:32;5.90;72.80
16437;DHT22;8328;52.206;21.006;2023-03-17T19:30:58;5.90;73.10
16437;DHT22;8328;52.206;21.006;2023-03-17T19:33:24;5.90;73.40
16437;DHT22;8328;52.206;21.006;2023-03-17T19:35:54;5.90;73.40
16437;DHT22;8328;52.206;21.006;2023-03-17T19:38:21;5.80;74.30
16437;DHT22;8328;52.206;21.006;2023-03-17T19:40:47;5.80;74.30
16437;DHT22;8328;52.206;21.006;2023-03-17T19:43:13;5.80;74.90
16437;DHT22;8328;52.206;21.006;2023-03-17T19:45:39;5.80;75.20
16437;DHT22;8328;52.206;21.006;2023-03-17T19:48:05;5.80;75.90
16437;DHT22;8328;52.206;21.006;2023-03-17T19:50:30;5.70;76.10
16437;DHT22;8328;52.206;21.006;2023-03-17T19:52:57;5.80;75.70
16437;DHT22;8328;52.206;21.006;2023-03-17T19:55:22;5.80;76.00
16437;DHT22;8328;52.206;21.006;2023-03-17T19:57:52;5.70;75.60
16437;DHT22;8328;52.206;21.006;2023-03-17T20:00:18;5.70;76.10
16437;DHT22;8328;52.206;21.006;2023-03-17T20:02:45;4.40;75.20
16437;DHT22;8328;52.206;21.006;2023-03-17T20:05:11;5.60;76.60
16437;DHT22;8328;52.206;21.006;2023-03-17T20:07:37;5.60;76.90
16437;DHT22;8328;52.206;21.006;2023-03-17T20:10:04;5.50;77.20
16437;DHT22;8328;52.206;21.006;2023-03-17T20:12:32;5.50;77.20
16437;DHT22;8328;52.206;21.006;2023-03-17T20:14:59;5.50;77.60
16437;DHT22;8328;52.206;21.006;2023-03-17T20:17:26;5.50;77.70
16437;DHT22;8328;52.206;21.006;2023-03-17T20:19:52;5.50;78.40
16437;DHT22;8328;52.206;21.006;2023-03-17T20:22:18;5.50;78.70
16437;DHT22;8328;52.206;21.006;2023-03-17T20:24:44;5.50;78.40
16437;DHT22;8328;52.206;21.006;2023-03-17T20:27:11;5.40;79.90
16437;DHT22;8328;52.206;21.006;2023-03-17T20:29:41;5.50;79.10
16437;DHT22;8328;52.206;21.006;2023-03-17T20:32:07;5.40;79.30
16437;DHT22;8328;52.206;21.006;2023-03-17T20:34:33;5.40;79.30
16437;DHT22;8328;52.206;21.006;2023-03-17T20:37:00;5.40;79.90
16437;DHT22;8328;52.206;21.006;2023-03-17T20:39:27;5.40;80.10
16437;DHT22;8328;52.206;21.006;2023-03-17T20:41:54;5.40;80.60
16437;DHT22;8328;52.206;21.006;2023-03-17T20:44:20;5.30;80.30
16437;DHT22;8328;52.206;21.006;2023-03-17T20:46:47;5.20;81.00
16437;DHT22;8328;52.206;21.006;2023-03-17T20:49:13;5.30;81.40
16437;DHT22;8328;52.206;21.006;2023-03-17T20:51:41;5.30;82.00
16437;DHT22;8328;52.206;21.006;2023-03-17T20:54:07;5.20;83.00
16437;DHT22;8328;52.206;21.006;2023-03-17T20:56:33;5.20;82.40
16437;DHT22;8328;52.206;21.006;2023-03-17T20:58:59;5.20;83.00
16437;DHT22;8328;52.206;21.006;2023-03-17T21:01:34;5.10;82.50
16437;DHT22;8328;52.206;21.006;2023-03-17T21:04:03;5.10;83.20
16437;DHT22;8328;52.206;21.006;2023-03-17T21:06:34;7.40;86.40
16437;DHT22;8328;52.206;21.006;2023-03-17T21:09:01;3.60;82.80
16437;DHT22;8328;52.206;21.006;2023-03-17T21:11:27;5.00;84.70
16437;DHT22;8328;52.206;21.006;2023-03-17T21:13:53;5.00;84.80
16437;DHT22;8328;52.206;21.006;2023-03-17T21:16:22;5.00;84.70
16437;DHT22;8328;52.206;21.006;2023-03-17T21:18:49;5.00;86.00
16437;DHT22;8328;52.206;21.006;2023-03-17T21:21:16;5.00;86.30
16437;DHT22;8328;52.206;21.006;2023-03-17T21:23:42;5.00;86.40
16437;DHT22;8328;52.206;21.006;2023-03-17T21:26:09;4.90;86.30
16437;DHT22;8328;52.206;21.006;2023-03-17T21:28:35;4.90;87.00
16437;DHT22;8328;52.206;21.006;2023-03-17T21:31:02;4.90;87.40
16437;DHT22;8328;52.206;21.006;2023-03-17T21:33:28;4.90;87.90
16437;DHT22;8328;52.206;21.006;2023-03-17T21:35:54;4.90;87.90
16437;DHT22;8328;52.206;21.006;2023-03-17T21:38:20;4.90;88.70
16437;DHT22;8328;52.206;21.006;2023-03-17T21:40:46;4.90;88.30
16437;DHT22;8328;52.206;21.006;2023-03-17T21:43:13;4.90;87.90
16437;DHT22;8328;52.206;21.006;2023-03-17T21:45:39;4.90;88.90
16437;DHT22;8328;52.206;21.006;2023-03-17T21:48:06;4.90;89.00
16437;DHT22;8328;52.206;21.006;2023-03-17T21:50:32;4.90;89.70
16437;DHT22;8328;52.206;21.006;2023-03-17T21:57:51;4.80;88.80
16437;DHT22;8328;52.206;21.006;2023-03-17T22:00:17;4.80;89.80
16437;DHT22;8328;52.206;21.006;2023-03-17T22:02:43;4.80;90.10
16437;DHT22;8328;52.206;21.006;2023-03-17T22:05:09;5.30;90.60
16437;DHT22;8328;52.206;21.006;2023-03-17T22:07:36;4.80;90.50
16437;DHT22;8328;52.206;21.006;2023-03-17T22:10:03;4.80;90.20
16437;DHT22;8328;52.206;21.006;2023-03-17T22:12:32;4.80;90.20
16437;DHT22;8328;52.206;21.006;2023-03-17T22:14:58;4.80;90.30
16437;DHT22;8328;52.206;21.006;2023-03-17T22:17:24;4.70;90.40
16437;DHT22;8328;52.206;21.006;2023-03-17T22:22:18;4.80;89.40